^^
Your Local Weather - Clay, NY Station Historical Data
Daily Summary for May 12, 2017 Units:  English    Metric   Both
« Previous Day
Next Day »
Daily Weekly Monthly Yearly Custom
  High: Low: Average:
Temperature: 67.2 °F 38.6 °F 54.6 °F
Dew Point: 48.5 °F 36.5 °F 43.4 °F
Humidity: 93% 43% 69%
Wind Speed: 4.0mph 0.0mph 0.7mph
Wind Gust: 6.0mph - -
Wind- - South
Pressure: 30.00 in 29.86 in -
Precipitation: 0.00 in    
Historical Graphs
 
 
Tabular Data for May 12, 2017
Time Temperature Dew Point Pressure Wind Wind Speed Wind Gust Humidity Rainfall Rate (Hourly) solar
00:02 46.2 °F 41.3 °F 29.95 in Calm     83% 0.00 in 0 W/m2
00:08 45.9 °F 41.3 °F 29.95 in Calm     84% 0.00 in 0 W/m2
00:14 45.7 °F 41.4 °F 29.95 in Calm     85% 0.00 in 0 W/m2
00:20 45.4 °F 41.2 °F 29.95 in Calm     85% 0.00 in 0 W/m2
00:26 45.1 °F 40.9 °F 29.95 in Calm     85% 0.00 in 0 W/m2
00:32 44.8 °F 40.9 °F 29.95 in Calm     86% 0.00 in 0 W/m2
00:38 44.5 °F 40.9 °F 29.95 in Calm     87% 0.00 in 0 W/m2
00:44 44.2 °F 40.6 °F 29.95 in Calm     87% 0.00 in 0 W/m2
00:50 43.9 °F 40.3 °F 29.95 in Calm     87% 0.00 in 0 W/m2
00:56 43.8 °F 40.2 °F 29.95 in Calm     87% 0.00 in 0 W/m2
01:02 43.5 °F 40.2 °F 29.95 in Calm     88% 0.00 in 0 W/m2
01:08 43.4 °F 40.1 °F 29.95 in Calm     88% 0.00 in 0 W/m2
01:14 43.2 °F 39.9 °F 29.95 in Calm     88% 0.00 in 0 W/m2
01:20 43.0 °F 39.7 °F 29.95 in Calm     88% 0.00 in 0 W/m2
01:26 42.8 °F 39.5 °F 29.95 in Calm     88% 0.00 in 0 W/m2
01:32 42.7 °F 39.7 °F 29.95 in Calm     89% 0.00 in 0 W/m2
01:38 42.5 °F 39.5 °F 29.95 in Calm     89% 0.00 in 0 W/m2
01:44 42.2 °F 39.2 °F 29.95 in Calm     89% 0.00 in 0 W/m2
01:50 42.1 °F 39.1 °F 29.95 in Calm     89% 0.00 in 0 W/m2
01:56 42.0 °F 39.0 °F 29.95 in Calm     89% 0.00 in 0 W/m2
02:02 41.8 °F 38.8 °F 29.95 in Calm     89% 0.00 in 0 W/m2
02:08 41.5 °F 38.5 °F 29.95 in Calm     89% 0.00 in 0 W/m2
02:14 41.5 °F 38.5 °F 29.95 in Calm     89% 0.00 in 0 W/m2
02:20 41.5 °F 38.8 °F 29.95 in Calm     90% 0.00 in 0 W/m2
02:26 41.5 °F 38.8 °F 29.95 in Calm     90% 0.00 in 0 W/m2
02:32 41.5 °F 38.8 °F 29.95 in Calm     90% 0.00 in 0 W/m2
02:38 41.4 °F 38.7 °F 29.95 in Calm     90% 0.00 in 0 W/m2
02:44 41.3 °F 38.6 °F 29.95 in Calm     90% 0.00 in 0 W/m2
02:50 41.2 °F 38.5 °F 29.94 in Calm     90% 0.00 in 0 W/m2
02:56 41.1 °F 38.4 °F 29.94 in Calm     90% 0.00 in 0 W/m2
03:02 41.2 °F 38.5 °F 29.94 in Calm     90% 0.00 in 0 W/m2
03:08 41.3 °F 38.9 °F 29.94 in Calm     91% 0.00 in 0 W/m2
03:14 41.2 °F 38.8 °F 29.94 in Calm     91% 0.00 in 0 W/m2
03:20 41.1 °F 38.7 °F 29.94 in Calm     91% 0.00 in 0 W/m2
03:26 40.9 °F 38.5 °F 29.94 in Calm     91% 0.00 in 0 W/m2
03:32 40.5 °F 38.1 °F 29.94 in Calm     91% 0.00 in 0 W/m2
03:38 40.3 °F 37.9 °F 29.94 in Calm     91% 0.00 in 0 W/m2
03:46 40.2 °F 37.8 °F 29.94 in Calm     91% 0.00 in 0 W/m2
03:52 40.1 °F 37.7 °F 29.94 in Calm     91% 0.00 in 0 W/m2
03:58 40.0 °F 37.6 °F 29.94 in Calm     91% 0.00 in 0 W/m2
04:04 39.9 °F 37.5 °F 29.94 in Calm     91% 0.00 in 0 W/m2
04:10 39.7 °F 37.3 °F 29.94 in Calm     91% 0.00 in 0 W/m2
04:16 39.5 °F 37.1 °F 29.94 in Calm     91% 0.00 in 0 W/m2
04:22 39.4 °F 37.0 °F 29.94 in Calm     91% 0.00 in 0 W/m2
04:28 39.4 °F 37.0 °F 29.95 in Calm     91% 0.00 in 0 W/m2
04:34 39.3 °F 36.9 °F 29.95 in Calm     91% 0.00 in 0 W/m2
04:40 39.2 °F 36.8 °F 29.95 in Calm     91% 0.00 in 0 W/m2
04:46 39.0 °F 36.9 °F 29.95 in Calm     92% 0.00 in 0 W/m2
04:52 38.9 °F 36.8 °F 29.95 in Calm     92% 0.00 in 0 W/m2
04:58 38.9 °F 36.8 °F 29.95 in Calm     92% 0.00 in 0 W/m2
05:04 38.7 °F 36.6 °F 29.96 in Calm     92% 0.00 in 0 W/m2
05:10 38.6 °F 36.5 °F 29.96 in Calm     92% 0.00 in 0 W/m2
05:15 38.7 °F 36.6 °F 29.96 in Calm     92% 0.00 in 0 W/m2
05:22 39.3 °F 37.2 °F 29.96 in Calm     92% 0.00 in 0 W/m2
05:28 39.4 °F 37.3 °F 29.96 in Calm     92% 0.00 in 0 W/m2
05:34 39.5 °F 37.4 °F 29.96 in Calm     92% 0.00 in 0 W/m2
05:40 39.7 °F 37.6 °F 29.96 in Calm     92% 0.00 in 0 W/m2
05:46 39.7 °F 37.6 °F 29.96 in Calm     92% 0.00 in 5 W/m2
05:52 39.6 °F 37.5 °F 29.97 in Calm     92% 0.00 in 7 W/m2
05:58 39.5 °F 37.4 °F 29.97 in Calm     92% 0.00 in 9 W/m2
06:04 39.6 °F 37.5 °F 29.97 in Calm   1.0 mph 92% 0.00 in 12 W/m2
06:10 39.6 °F 37.5 °F 29.98 in Calm     92% 0.00 in 16 W/m2
06:16 39.6 °F 37.5 °F 29.98 in Calm     92% 0.00 in 19 W/m2
06:22 39.6 °F 37.7 °F 29.98 in Calm     93% 0.00 in 25 W/m2
06:28 39.9 °F 37.8 °F 29.98 in Calm     92% 0.00 in 62 W/m2
06:34 40.4 °F 38.5 °F 29.99 in Calm     93% 0.00 in 95 W/m2
06:40 40.9 °F 39.0 °F 29.99 in Calm     93% 0.00 in 123 W/m2
06:46 42.0 °F 40.1 °F 29.99 in Calm     93% 0.00 in 148 W/m2
06:52 42.3 °F 40.4 °F 29.99 in Calm     93% 0.00 in 153 W/m2
06:58 44.1 °F 42.2 °F 29.99 in Calm     93% 0.00 in 171 W/m2
07:04 45.1 °F 43.2 °F 29.99 in Calm     93% 0.00 in 181 W/m2
07:10 45.6 °F 43.7 °F 29.99 in Calm     93% 0.00 in 193 W/m2
07:16 46.5 °F 44.6 °F 29.99 in Calm     93% 0.00 in 204 W/m2
07:22 46.7 °F 44.8 °F 29.99 in Calm     93% 0.00 in 221 W/m2
07:28 46.8 °F 44.6 °F 29.99 in Calm     92% 0.00 in 237 W/m2
07:34 47.4 °F 44.9 °F 30.00 in Calm     91% 0.00 in 251 W/m2
07:40 48.0 °F 45.2 °F 30.00 in Calm     90% 0.00 in 274 W/m2
07:46 49.0 °F 45.6 °F 30.00 in Calm     88% 0.00 in 295 W/m2
07:52 49.8 °F 45.2 °F 30.00 in Calm     84% 0.00 in 315 W/m2
07:58 50.8 °F 45.5 °F 30.00 in Calm     82% 0.00 in 336 W/m2
08:04 51.1 °F 45.1 °F 30.00 in Calm     80% 0.00 in 352 W/m2
08:10 51.2 °F 44.9 °F 30.00 in Calm     79% 0.00 in 374 W/m2
08:16 52.5 °F 46.2 °F 29.99 in Calm     79% 0.00 in 392 W/m2
08:22 53.3 °F 45.9 °F 29.99 in Calm     76% 0.00 in 410 W/m2
08:28 53.5 °F 45.1 °F 30.00 in Calm   1.0 mph 73% 0.00 in 445 W/m2
08:34 53.9 °F 45.1 °F 30.00 in Calm   4.0 mph 72% 0.00 in 501 W/m2
08:40 54.2 °F 45.0 °F 30.00 in ESE 1.0 mph 1.0 mph 71% 0.00 in 547 W/m2
08:46 54.9 °F 46.0 °F 29.99 in ESE 1.0 mph 2.0 mph 72% 0.00 in 580 W/m2
08:52 55.1 °F 45.9 °F 29.99 in ESE 1.0 mph 1.0 mph 71% 0.00 in 585 W/m2
08:58 55.7 °F 46.1 °F 29.99 in Calm   3.0 mph 70% 0.00 in 608 W/m2
09:04 55.9 °F 45.9 °F 29.99 in SSE 1.0 mph 4.0 mph 69% 0.00 in 401 W/m2
09:10 55.0 °F 44.6 °F 29.99 in SE 2.0 mph 2.0 mph 68% 0.00 in 330 W/m2
09:16 55.0 °F 45.0 °F 29.99 in SE 2.0 mph 2.0 mph 69% 0.00 in 557 W/m2
09:22 55.2 °F 44.8 °F 29.99 in SE 2.0 mph 4.0 mph 68% 0.00 in 374 W/m2
09:28 55.3 °F 44.9 °F 29.99 in SSW 2.0 mph 4.0 mph 68% 0.00 in 475 W/m2
09:34 55.6 °F 44.8 °F 29.99 in SSE 1.0 mph 2.0 mph 67% 0.00 in 515 W/m2
09:40 56.3 °F 45.5 °F 29.99 in SSW 1.0 mph 1.0 mph 67% 0.00 in 589 W/m2
09:46 56.8 °F 45.2 °F 29.98 in SSW 1.0 mph 5.0 mph 65% 0.00 in 548 W/m2
09:54 56.6 °F 44.6 °F 29.98 in SSE 2.0 mph 4.0 mph 64% 0.00 in 657 W/m2
10:00 57.5 °F 46.2 °F 29.99 in SSW 2.0 mph 2.0 mph 66% 0.00 in 461 W/m2
10:05 57.5 °F 45.0 °F 29.98 in SSW 1.0 mph 2.0 mph 63% 0.00 in 487 W/m2
10:12 57.5 °F 45.4 °F 29.99 in SSW 1.0 mph 3.0 mph 64% 0.00 in 390 W/m2
10:18 57.2 °F 45.1 °F 29.99 in SSW 3.0 mph 5.0 mph 64% 0.00 in 404 W/m2
10:24 57.8 °F 46.5 °F 29.99 in SW 2.0 mph 2.0 mph 66% 0.00 in 497 W/m2
10:30 57.4 °F 44.9 °F 29.99 in WSW 2.0 mph 2.0 mph 63% 0.00 in 432 W/m2
10:36 58.4 °F 47.1 °F 29.99 in WSW 1.0 mph 2.0 mph 66% 0.00 in 1097 W/m2
10:42 60.0 °F 46.1 °F 29.99 in North 1.0 mph 2.0 mph 60% 0.00 in 585 W/m2
10:48 58.9 °F 45.9 °F 29.98 in SE 2.0 mph 4.0 mph 62% 0.00 in 469 W/m2
10:54 58.9 °F 46.3 °F 29.98 in SW 2.0 mph 4.0 mph 63% 0.00 in 466 W/m2
10:59 59.2 °F 46.6 °F 29.99 in SW 1.0 mph 1.0 mph 63% 0.00 in 485 W/m2
11:05 59.5 °F 45.2 °F 29.98 in Calm   2.0 mph 59% 0.00 in 534 W/m2
11:12 60.2 °F 46.3 °F 29.98 in WSW 1.0 mph 2.0 mph 60% 0.00 in 585 W/m2
11:18 60.3 °F 45.5 °F 29.98 in WSW 1.0 mph 2.0 mph 58% 0.00 in 501 W/m2
11:24 59.5 °F 44.7 °F 29.97 in SSW 1.0 mph 4.0 mph 58% 0.00 in 543 W/m2
11:30 60.5 °F 45.6 °F 29.97 in SW 2.0 mph 3.0 mph 58% 0.00 in 566 W/m2
11:38 61.5 °F 45.7 °F 29.97 in SW 2.0 mph 3.0 mph 56% 0.00 in 657 W/m2
11:44 62.6 °F 46.2 °F 29.97 in WSW 1.0 mph 2.0 mph 55% 0.00 in 805 W/m2
11:50 62.6 °F 44.7 °F 29.97 in Calm   2.0 mph 52% 0.00 in 540 W/m2
11:56 62.1 °F 45.2 °F 29.97 in SE 2.0 mph 5.0 mph 54% 0.00 in 561 W/m2
12:02 62.5 °F 47.5 °F 29.97 in WSW 3.0 mph 3.0 mph 58% 0.00 in 979 W/m2
12:08 62.0 °F 45.6 °F 29.96 in SSW 2.0 mph 3.0 mph 55% 0.00 in 647 W/m2
12:14 62.2 °F 44.9 °F 29.96 in SW 1.0 mph 4.0 mph 53% 0.00 in 643 W/m2
12:20 62.4 °F 45.5 °F 29.96 in SSW 2.0 mph 2.0 mph 54% 0.00 in 728 W/m2
12:26 63.2 °F 46.8 °F 29.96 in SW 1.0 mph 2.0 mph 55% 0.00 in 947 W/m2
12:32 62.7 °F 45.3 °F 29.96 in East 1.0 mph 3.0 mph 53% 0.00 in 870 W/m2
12:38 64.0 °F 48.5 °F 29.95 in West 1.0 mph 3.0 mph 57% 0.00 in 1039 W/m2
12:44 64.2 °F 44.6 °F 29.95 in WNW 1.0 mph 2.0 mph 49% 0.00 in 417 W/m2
12:50 64.1 °F 46.1 °F 29.94 in SW 2.0 mph 2.0 mph 52% 0.00 in 796 W/m2
12:56 64.3 °F 45.3 °F 29.94 in WSW 1.0 mph 2.0 mph 50% 0.00 in 773 W/m2
13:02 64.6 °F 43.9 °F 29.94 in WSW 1.0 mph 2.0 mph 47% 0.00 in 728 W/m2
13:08 64.6 °F 44.5 °F 29.94 in WSW 1.0 mph 2.0 mph 48% 0.00 in 615 W/m2
13:14 64.2 °F 44.6 °F 29.94 in SW 1.0 mph 4.0 mph 49% 0.00 in 663 W/m2
13:20 64.4 °F 44.8 °F 29.93 in SW 1.0 mph 1.0 mph 49% 0.00 in 847 W/m2
13:26 64.5 °F 46.0 °F 29.93 in SSE 1.0 mph 3.0 mph 51% 0.00 in 749 W/m2
13:32 64.9 °F 45.8 °F 29.92 in North 2.0 mph 3.0 mph 50% 0.00 in 422 W/m2
13:38 63.6 °F 45.1 °F 29.92 in NE 3.0 mph 3.0 mph 51% 0.00 in 376 W/m2
13:44 63.8 °F 44.8 °F 29.92 in SE 3.0 mph 5.0 mph 50% 0.00 in 283 W/m2
13:50 63.5 °F 44.5 °F 29.92 in East 3.0 mph 3.0 mph 50% 0.00 in 214 W/m2
13:56 63.4 °F 45.5 °F 29.91 in East 2.0 mph 3.0 mph 52% 0.00 in 889 W/m2
14:02 64.6 °F 44.5 °F 29.91 in SSE 1.0 mph 4.0 mph 48% 0.00 in 928 W/m2
14:08 64.8 °F 45.7 °F 29.91 in SE 2.0 mph 4.0 mph 50% 0.00 in 954 W/m2
14:14 65.2 °F 45.5 °F 29.91 in SSW 2.0 mph 4.0 mph 49% 0.00 in 998 W/m2
14:20 65.9 °F 45.1 °F 29.91 in NNE 2.0 mph 3.0 mph 47% 0.00 in 309 W/m2
14:26 64.7 °F 45.6 °F 29.91 in ENE 3.0 mph 5.0 mph 50% 0.00 in 315 W/m2
14:32 64.7 °F 46.7 °F 29.91 in ENE 2.0 mph 4.0 mph 52% 0.00 in 831 W/m2
14:38 65.4 °F 45.7 °F 29.90 in SSW 2.0 mph 4.0 mph 49% 0.00 in 814 W/m2
14:44 64.9 °F 45.8 °F 29.90 in NE 2.0 mph 4.0 mph 50% 0.00 in 265 W/m2
14:50 65.6 °F 45.9 °F 29.90 in SE 2.0 mph 3.0 mph 49% 0.00 in 791 W/m2
14:56 64.8 °F 44.1 °F 29.90 in ENE 4.0 mph 5.0 mph 47% 0.00 in 708 W/m2
15:02 65.4 °F 44.6 °F 29.90 in NNE 2.0 mph 5.0 mph 47% 0.00 in 450 W/m2
15:08 65.5 °F 45.3 °F 29.90 in ENE 2.0 mph 6.0 mph 48% 0.00 in 529 W/m2
15:14 65.3 °F 45.1 °F 29.90 in SSE 3.0 mph 4.0 mph 48% 0.00 in 424 W/m2
15:20 65.5 °F 46.4 °F 29.90 in SE 2.0 mph 4.0 mph 50% 0.00 in 359 W/m2
15:26 65.2 °F 44.5 °F 29.90 in East 2.0 mph 4.0 mph 47% 0.00 in 355 W/m2
15:32 65.2 °F 45.0 °F 29.90 in NNW 1.0 mph 2.0 mph 48% 0.00 in 274 W/m2
15:38 65.4 °F 43.5 °F 29.89 in NNW 1.0 mph 2.0 mph 45% 0.00 in 236 W/m2
15:44 65.2 °F 43.9 °F 29.89 in NE 1.0 mph 2.0 mph 46% 0.00 in 264 W/m2
15:50 65.3 °F 44.5 °F 29.89 in NE 1.0 mph 1.0 mph 47% 0.00 in 260 W/m2
15:56 65.2 °F 44.5 °F 29.89 in NE 1.0 mph 3.0 mph 47% 0.00 in 339 W/m2
16:02 65.3 °F 44.5 °F 29.88 in NE 1.0 mph 1.0 mph 47% 0.00 in 297 W/m2
16:08 65.8 °F 43.9 °F 29.88 in Calm   1.0 mph 45% 0.00 in 526 W/m2
16:14 66.7 °F 46.4 °F 29.88 in NNE 1.0 mph 2.0 mph 48% 0.00 in 508 W/m2
16:20 67.2 °F 45.7 °F 29.88 in North 1.0 mph 2.0 mph 46% 0.00 in 330 W/m2
16:26 66.6 °F 45.7 °F 29.88 in NE 2.0 mph 3.0 mph 47% 0.00 in 181 W/m2
16:32 66.1 °F 45.3 °F 29.88 in West 2.0 mph 3.0 mph 47% 0.00 in 181 W/m2
16:38 65.7 °F 46.5 °F 29.88 in NNE 2.0 mph 4.0 mph 50% 0.00 in 193 W/m2
16:44 65.6 °F 45.9 °F 29.88 in SSE 2.0 mph 3.0 mph 49% 0.00 in 257 W/m2
16:50 66.3 °F 45.5 °F 29.88 in ENE 1.0 mph 1.0 mph 47% 0.00 in 380 W/m2
16:56 66.4 °F 44.4 °F 29.88 in SE 1.0 mph 1.0 mph 45% 0.00 in 360 W/m2
17:02 66.6 °F 44.6 °F 29.88 in Calm   2.0 mph 45% 0.00 in 176 W/m2
17:08 66.2 °F 43.6 °F 29.88 in ENE 2.0 mph 2.0 mph 44% 0.00 in 107 W/m2
17:14 65.8 °F 43.9 °F 29.87 in ENE 1.0 mph 2.0 mph 45% 0.00 in 84 W/m2
17:20 65.6 °F 43.7 °F 29.88 in Calm   2.0 mph 45% 0.00 in 118 W/m2
17:26 65.5 °F 44.7 °F 29.88 in Calm   2.0 mph 47% 0.00 in 153 W/m2
17:32 65.5 °F 43.0 °F 29.87 in Calm   1.0 mph 44% 0.00 in 165 W/m2
17:38 65.6 °F 43.7 °F 29.87 in NNW 1.0 mph 1.0 mph 45% 0.00 in 135 W/m2
17:44 65.6 °F 43.7 °F 29.87 in ENE 1.0 mph 1.0 mph 45% 0.00 in 127 W/m2
17:50 65.6 °F 43.1 °F 29.87 in North 1.0 mph 1.0 mph 44% 0.00 in 146 W/m2
17:56 65.5 °F 43.6 °F 29.86 in ENE 1.0 mph 3.0 mph 45% 0.00 in 156 W/m2
18:02 65.5 °F 42.4 °F 29.86 in ENE 2.0 mph 2.0 mph 43% 0.00 in 148 W/m2
18:08 65.6 °F 43.1 °F 29.86 in NE 2.0 mph 3.0 mph 44% 0.00 in 139 W/m2
18:14 65.6 °F 43.7 °F 29.86 in ENE 1.0 mph 2.0 mph 45% 0.00 in 127 W/m2
18:20 65.5 °F 43.6 °F 29.86 in ENE 1.0 mph 1.0 mph 45% 0.00 in 121 W/m2
18:26 65.4 °F 44.1 °F 29.86 in ENE 1.0 mph 2.0 mph 46% 0.00 in 120 W/m2
18:32 65.3 °F 44.0 °F 29.86 in ENE 1.0 mph 2.0 mph 46% 0.00 in 105 W/m2
18:38 65.3 °F 42.2 °F 29.86 in Calm   2.0 mph 43% 0.00 in 86 W/m2
18:44 65.2 °F 42.1 °F 29.87 in Calm     43% 0.00 in 74 W/m2
18:50 65.2 °F 45.0 °F 29.86 in Calm     48% 0.00 in 72 W/m2
18:56 65.0 °F 44.3 °F 29.86 in Calm     47% 0.00 in 63 W/m2
19:02 64.4 °F 45.3 °F 29.86 in NW 1.0 mph 3.0 mph 50% 0.00 in 62 W/m2
19:08 63.2 °F 45.8 °F 29.86 in NNW 3.0 mph 5.0 mph 53% 0.00 in 54 W/m2
19:14 62.4 °F 46.5 °F 29.86 in NNW 2.0 mph 3.0 mph 56% 0.00 in 47 W/m2
19:20 61.9 °F 46.5 °F 29.87 in NNW 1.0 mph 1.0 mph 57% 0.00 in 40 W/m2
19:26 61.5 °F 46.6 °F 29.87 in NNW 1.0 mph 1.0 mph 58% 0.00 in 33 W/m2
19:32 60.9 °F 46.0 °F 29.87 in NW 1.0 mph 2.0 mph 58% 0.00 in 28 W/m2
19:38 60.4 °F 45.5 °F 29.87 in NW 2.0 mph 2.0 mph 58% 0.00 in 25 W/m2
19:44 60.1 °F 45.7 °F 29.88 in NNW 2.0 mph 5.0 mph 59% 0.00 in 23 W/m2
19:50 59.8 °F 45.9 °F 29.88 in NW 1.0 mph 1.0 mph 60% 0.00 in 18 W/m2
19:56 59.5 °F 45.6 °F 29.88 in NW 1.0 mph 2.0 mph 60% 0.00 in 14 W/m2
20:02 59.4 °F 45.9 °F 29.88 in NW 1.0 mph 1.0 mph 61% 0.00 in 9 W/m2
20:08 59.2 °F 45.8 °F 29.88 in Calm   1.0 mph 61% 0.00 in 0 W/m2
20:14 58.9 °F 45.0 °F 29.88 in Calm     60% 0.00 in 0 W/m2
20:20 58.8 °F 45.8 °F 29.88 in Calm     62% 0.00 in 0 W/m2
20:26 58.6 °F 45.6 °F 29.88 in Calm   1.0 mph 62% 0.00 in 0 W/m2
20:32 58.5 °F 45.5 °F 29.88 in NNE 1.0 mph 1.0 mph 62% 0.00 in 0 W/m2
20:38 58.4 °F 45.4 °F 29.88 in Calm   1.0 mph 62% 0.00 in 0 W/m2
20:44 58.3 °F 45.3 °F 29.88 in Calm     62% 0.00 in 0 W/m2
20:50 58.2 °F 46.1 °F 29.88 in Calm     64% 0.00 in 0 W/m2
20:56 58.0 °F 45.5 °F 29.88 in Calm     63% 0.00 in 0 W/m2
21:02 57.8 °F 45.7 °F 29.88 in Calm     64% 0.00 in 0 W/m2
21:08 57.7 °F 44.8 °F 29.88 in Calm     62% 0.00 in 0 W/m2
21:14 57.6 °F 45.1 °F 29.88 in Calm     63% 0.00 in 0 W/m2
21:20 57.5 °F 45.0 °F 29.88 in Calm     63% 0.00 in 0 W/m2
21:26 57.4 °F 45.3 °F 29.88 in Calm     64% 0.00 in 0 W/m2
21:32 57.3 °F 45.2 °F 29.88 in Calm     64% 0.00 in 0 W/m2
21:38 57.1 °F 45.0 °F 29.88 in Calm     64% 0.00 in 0 W/m2
21:44 57.0 °F 44.5 °F 29.88 in Calm     63% 0.00 in 0 W/m2
21:50 57.1 °F 45.4 °F 29.89 in Calm     65% 0.00 in 0 W/m2
21:56 57.1 °F 45.4 °F 29.89 in Calm     65% 0.00 in 0 W/m2
22:02 56.9 °F 46.1 °F 29.89 in Calm   2.0 mph 67% 0.00 in 0 W/m2
22:08 56.8 °F 46.0 °F 29.89 in Calm   2.0 mph 67% 0.00 in 0 W/m2
22:14 56.7 °F 46.6 °F 29.89 in Calm     69% 0.00 in 0 W/m2
22:20 56.6 °F 46.5 °F 29.89 in Calm     69% 0.00 in 0 W/m2
22:26 56.4 °F 46.4 °F 29.89 in Calm     69% 0.00 in 0 W/m2
22:32 56.2 °F 46.5 °F 29.88 in Calm     70% 0.00 in 0 W/m2
22:38 56.1 °F 46.4 °F 29.88 in Calm     70% 0.00 in 0 W/m2
22:44 55.9 °F 45.9 °F 29.88 in Calm   2.0 mph 69% 0.00 in 0 W/m2
22:50 56.0 °F 47.1 °F 29.88 in SW 1.0 mph 1.0 mph 72% 0.00 in 0 W/m2
22:56 55.9 °F 46.6 °F 29.88 in WSW 1.0 mph 1.0 mph 71% 0.00 in 0 W/m2
23:02 55.9 °F 47.0 °F 29.88 in WSW 1.0 mph 2.0 mph 72% 0.00 in 0 W/m2
23:08 55.9 °F 47.0 °F 29.88 in Calm   2.0 mph 72% 0.00 in 0 W/m2
23:14 55.8 °F 47.3 °F 29.88 in SW 1.0 mph 3.0 mph 73% 0.00 in 0 W/m2
23:20 55.7 °F 47.2 °F 29.88 in SW 1.0 mph 1.0 mph 73% 0.00 in 0 W/m2
23:26 55.8 °F 47.3 °F 29.88 in SW 1.0 mph 4.0 mph 73% 0.00 in 0 W/m2
23:32 55.7 °F 47.2 °F 29.88 in Calm   1.0 mph 73% 0.00 in 0 W/m2
23:38 55.6 °F 47.1 °F 29.88 in Calm   1.0 mph 73% 0.00 in 0 W/m2
23:44 55.5 °F 47.0 °F 29.88 in Calm   1.0 mph 73% 0.00 in 0 W/m2
23:50 55.5 °F 46.6 °F 29.88 in West 1.0 mph 1.0 mph 72% 0.00 in 0 W/m2
23:56 55.5 °F 47.0 °F 29.88 in West 1.0 mph 2.0 mph 73% 0.00 in 0 W/m2
Country Meadow, Clay, NY, USA
Compliments of Weather Underground - 2 mb